Gairloch, United Kingdom
Current Conditions -  °F | °C
As of 10:20 PM on Wednesday 22 Oct 2014 (Local Time) from EGPO Reporting Station
Rain Showers Rain Showers  
Wind Chill: 54°   Ceiling: Unl
Heat Index: 54°   Visibility: 6mi
Dew Point: 50°   Wind: 21mph
Humidity: 88%   Direction: 230°SW
Pressure: 29.65"   Gusts: 33mph
Location:  57.7°N, 5.73°W
Report Text: EGPO 222120Z AUTO 23018G29KT 9000 -SHRA FEW010/// SCT022/// 12/10 Q1004
Loading
Personal Weather Stations






























Interactive Weather Map
Tropical Storm Tracking
New forecast layout! Learn more

10-Day Weather Forecast

Advertisements
Track Severe Weather on mobile